Time;durP1;ratioP1;P1;durP2;ratioP2;P2;SDS_P1;SDS_P2;PMS_P1;PMS_P2;Temp;Humidity;BMP_temperature;BMP_pressure;BME280_temperature;BME280_humidity;BME280_pressure;Samples;Min_cycle;Max_cycle;Signal;HPM_P1;HPM_P2
2023/03/19 00:02:12;;;;;;;6.55;5.95;;;;;;;11.68;91.88;100179.91;4998079;28;20468;-81
2023/03/19 00:04:39;;;;;;;6.60;6.10;;;;;;;11.67;92.37;100169.50;4998628;28;20231;-81
2023/03/19 00:07:05;;;;;;;7.13;6.63;;;;;;;11.71;92.10;100168.50;4998814;28;20727;-81
2023/03/19 00:09:33;;;;;;;6.10;5.60;;;;;;;11.72;92.03;100180.69;5011395;28;20228;-80
2023/03/19 00:11:59;;;;;;;7.80;7.10;;;;;;;11.67;91.77;100188.66;5017823;28;20696;-79
2023/03/19 00:14:26;;;;;;;9.00;8.40;;;;;;;11.63;92.83;100165.25;5017749;28;20764;-80
2023/03/19 00:16:52;;;;;;;8.03;7.40;;;;;;;11.66;92.76;100162.56;5017645;28;20229;-81
2023/03/19 00:19:19;;;;;;;7.83;7.23;;;;;;;11.71;92.99;100164.16;5017742;28;20726;-81
2023/03/19 00:21:46;;;;;;;7.40;6.80;;;;;;;11.66;93.07;100157.34;5018167;28;20274;-81
2023/03/19 00:24:12;;;;;;;7.20;6.57;;;;;;;11.73;93.20;100148.41;5017960;28;20230;-81
2023/03/19 00:26:40;;;;;;;7.73;7.20;;;;;;;11.48;92.44;100167.38;5018041;28;20206;-80
2023/03/19 00:29:07;;;;;;;10.57;9.37;;;;;;;11.04;95.47;100121.53;5010236;28;20755;-81
2023/03/19 00:31:34;;;;;;;8.57;7.87;;;;;;;10.84;96.55;100091.59;4998064;28;20583;-81
2023/03/19 00:34:02;;;;;;;9.03;8.33;;;;;;;10.83;97.68;100060.28;4997330;28;20205;-81
2023/03/19 00:36:28;;;;;;;9.33;8.73;;;;;;;10.60;98.85;100042.59;4998106;28;20690;-81
2023/03/19 00:38:55;;;;;;;9.30;8.60;;;;;;;10.45;100.00;100002.94;4997680;28;20864;-81
2023/03/19 00:41:22;;;;;;;9.13;8.43;;;;;;;10.46;100.00;99988.13;4997974;28;20241;-81
2023/03/19 00:43:54;;;;;;;8.87;8.17;;;;;;;10.51;100.00;99978.44;4998240;28;20709;-81
2023/03/19 00:46:20;;;;;;;9.90;9.10;;;;;;;10.36;100.00;99964.03;4997351;28;20194;-78
2023/03/19 00:48:47;;;;;;;9.50;8.80;;;;;;;10.41;100.00;99950.88;5003256;28;20209;-78
2023/03/19 00:51:13;;;;;;;9.20;8.47;;;;;;;10.58;100.00;99960.88;5005804;28;20204;-78
2023/03/19 00:53:42;;;;;;;8.53;7.90;;;;;;;10.68;100.00;99984.09;4996197;28;20244;-78
2023/03/19 00:56:09;;;;;;;7.70;7.10;;;;;;;10.81;98.20;100025.53;4996322;28;20698;-78
2023/03/19 00:58:37;;;;;;;7.13;6.63;;;;;;;10.84;96.52;100054.16;4996931;28;20213;-79
2023/03/19 01:01:06;;;;;;;6.67;6.13;;;;;;;10.85;95.94;100082.84;4996166;28;20711;-79
2023/03/19 01:03:32;;;;;;;7.67;7.17;;;;;;;10.82;95.57;100098.59;4996563;28;20716;-80
2023/03/19 01:05:59;;;;;;;8.23;7.53;;;;;;;10.63;95.76;100105.16;4996032;28;20775;-78
2023/03/19 01:08:26;;;;;;;7.83;7.23;;;;;;;10.59;96.74;100087.88;4996582;28;20234;-78
2023/03/19 01:10:52;;;;;;;7.50;6.90;;;;;;;10.68;96.48;100085.88;4996894;28;20225;-80
2023/03/19 01:13:19;;;;;;;7.93;7.33;;;;;;;10.75;95.94;100104.00;4997225;28;20205;-80
2023/03/19 01:15:45;;;;;;;7.57;6.93;;;;;;;10.82;94.83;100116.00;4996958;28;20242;-80
2023/03/19 01:18:13;;;;;;;6.97;6.47;;;;;;;10.82;94.11;100142.09;4996546;28;20692;-81
2023/03/19 01:20:41;;;;;;;5.90;5.50;;;;;;;10.79;93.31;100158.72;4997094;28;20229;-79
2023/03/19 01:23:07;;;;;;;5.80;5.40;;;;;;;10.82;92.65;100183.88;4996604;28;20238;-81
2023/03/19 01:25:34;;;;;;;6.47;6.07;;;;;;;10.83;92.52;100183.00;4997462;28;20242;-81
2023/03/19 01:28:01;;;;;;;5.97;5.57;;;;;;;10.65;94.50;100161.66;4998852;28;20237;-81
2023/03/19 01:30:27;;;;;;;6.57;5.70;;;;;;;10.66;95.64;100132.06;5016119;28;20290;-80
2023/03/19 01:32:53;;;;;;;5.37;4.97;;;;;;;10.72;95.69;100120.59;5016489;28;20244;-81
2023/03/19 01:35:21;;;;;;;4.70;4.30;;;;;;;10.73;94.98;100125.78;5016175;28;20208;-81
2023/03/19 01:37:47;;;;;;;4.27;3.97;;;;;;;10.78;94.19;100137.84;5014927;28;20233;-79
2023/03/19 01:40:15;;;;;;;4.23;3.83;;;;;;;10.73;93.54;100146.66;4997064;28;20266;-81
2023/03/19 01:42:52;;;;;;;4.70;4.40;;;;;;;10.68;93.81;100166.81;4996760;28;20614;-79
2023/03/19 01:45:30;;;;;;;4.47;4.03;;;;;;;10.66;94.00;100154.66;4996963;28;20245;-80
2023/03/19 01:47:57;;;;;;;4.50;4.10;;;;;;;10.59;94.99;100138.31;4996589;28;20280;-81
2023/03/19 01:50:29;;;;;;;4.73;4.00;;;;;;;10.63;94.52;100134.72;4996777;28;20654;-80
2023/03/19 01:52:55;;;;;;;5.17;4.40;;;;;;;10.62;93.70;100140.81;4996718;28;20205;-80
2023/03/19 01:55:22;;;;;;;3.37;3.17;;;;;;;10.65;92.55;100164.25;4996805;28;20241;-79
2023/03/19 01:57:48;;;;;;;3.63;3.43;;;;;;;10.66;91.99;100178.16;4996970;28;20217;-80
2023/03/19 02:00:15;;;;;;;3.50;3.20;;;;;;;10.66;91.64;100191.22;4996327;28;20301;-79
2023/03/19 02:02:46;;;;;;;3.33;3.13;;;;;;;10.62;92.46;100200.00;4996509;28;20226;-81
2023/03/19 02:05:21;;;;;;;3.27;2.97;;;;;;;10.58;92.27;100196.59;4996643;28;20238;-81
2023/03/19 02:07:49;;;;;;;3.07;2.70;;;;;;;10.53;92.48;100195.88;5000310;28;20671;-80
2023/03/19 02:10:17;;;;;;;2.97;2.77;;;;;;;10.49;92.85;100187.25;5000363;28;20231;-81
2023/03/19 02:12:43;;;;;;;3.77;3.17;;;;;;;10.49;92.43;100189.00;5000371;28;20202;-81
2023/03/19 02:15:11;;;;;;;3.67;2.90;;;;;;;10.52;92.45;100189.81;5000303;28;20675;-81
2023/03/19 02:17:38;;;;;;;3.23;2.97;;;;;;;10.48;92.32;100182.06;4999983;28;20210;-81
2023/03/19 02:20:12;;;;;;;2.63;2.43;;;;;;;10.55;92.41;100186.25;4999968;28;20742;-80
2023/03/19 02:22:43;;;;;;;4.83;3.00;;;;;;;10.53;92.82;100181.06;4999855;28;20505;-80
2023/03/19 02:25:15;;;;;;;4.00;2.90;;;;;;;10.58;92.75;100167.03;4999953;28;20260;-81
2023/03/19 02:27:43;;;;;;;2.77;2.57;;;;;;;10.60;92.65;100173.09;5001377;28;20221;-81
2023/03/19 02:30:22;;;;;;;3.57;2.87;;;;;;;10.60;92.71;100170.47;5019519;28;20237;-81
2023/03/19 02:32:49;;;;;;;3.30;3.10;;;;;;;10.57;92.60;100174.03;5018840;28;20249;-81
2023/03/19 02:35:15;;;;;;;4.07;2.50;;;;;;;10.52;92.36;100173.25;5019665;28;20229;-80
2023/03/19 02:37:41;;;;;;;3.47;3.17;;;;;;;10.52;92.62;100170.66;5019848;28;20213;-81
2023/03/19 02:40:12;;;;;;;3.20;2.77;;;;;;;10.52;92.03;100184.59;5020346;28;20230;-79
2023/03/19 02:42:39;;;;;;;4.43;3.00;;;;;;;10.45;92.49;100180.38;5015033;28;20704;-79
2023/03/19 02:45:08;;;;;;;2.73;2.53;;;;;;;10.46;92.91;100173.41;4997291;28;20236;-79
2023/03/19 02:47:34;;;;;;;2.73;2.50;;;;;;;10.45;92.79;100167.34;4996505;28;20210;-79
2023/03/19 02:50:01;;;;;;;3.63;2.63;;;;;;;10.41;92.76;100170.91;4995615;28;20231;-79
2023/03/19 02:52:27;;;;;;;3.17;2.33;;;;;;;10.44;93.21;100164.75;4995661;28;20237;-79
2023/03/19 02:54:54;;;;;;;5.43;2.83;;;;;;;10.42;93.47;100156.97;4995787;28;20203;-79
2023/03/19 02:57:20;;;;;;;3.27;2.97;;;;;;;10.42;93.97;100145.66;4995932;28;20214;-80
2023/03/19 02:59:47;;;;;;;5.50;5.10;;;;;;;10.44;94.33;100136.91;4995308;28;20262;-79
2023/03/19 03:02:15;;;;;;;4.97;4.50;;;;;;;10.46;95.25;100118.59;4983911;28;20224;-79
2023/03/19 03:04:41;;;;;;;5.60;5.20;;;;;;;10.48;95.52;100109.00;5015208;28;20238;-79
2023/03/19 03:07:08;;;;;;;6.07;4.80;;;;;;;10.49;95.52;100102.91;5015217;28;20241;-79
2023/03/19 03:09:34;;;;;;;5.67;4.80;;;;;;;10.49;95.67;100090.69;5015478;28;20233;-78
2023/03/19 03:12:01;;;;;;;5.20;4.67;;;;;;;10.53;95.55;100097.56;5015110;28;20237;-78
2023/03/19 03:14:27;;;;;;;5.77;4.70;;;;;;;10.55;95.17;100099.28;5014993;28;20691;-78
2023/03/19 03:16:53;;;;;;;5.10;4.70;;;;;;;10.53;94.61;100112.38;4996307;28;20257;-79
2023/03/19 03:19:22;;;;;;;5.00;4.67;;;;;;;10.56;94.40;100127.06;4995175;28;20258;-79
2023/03/19 03:21:48;;;;;;;5.97;5.57;;;;;;;10.52;94.38;100141.94;4995728;28;20210;-79
2023/03/19 03:24:15;;;;;;;7.13;5.80;;;;;;;10.50;94.12;100147.22;4995205;28;20305;-80
2023/03/19 03:26:41;;;;;;;4.83;4.47;;;;;;;10.48;93.46;100159.41;4995565;28;20239;-80
2023/03/19 03:29:08;;;;;;;4.67;4.20;;;;;;;10.48;92.99;100164.63;4995877;28;20266;-80
2023/03/19 03:31:34;;;;;;;5.03;4.63;;;;;;;10.46;92.86;100184.69;4995893;28;20221;-79
2023/03/19 03:34:01;;;;;;;4.47;3.60;;;;;;;10.48;92.37;100179.44;4995479;28;20240;-78
2023/03/19 03:36:29;;;;;;;3.80;3.50;;;;;;;10.42;92.34;100187.41;4996776;28;20202;-79
2023/03/19 03:38:55;;;;;;;3.00;2.80;;;;;;;10.40;92.94;100179.63;4995233;28;20241;-80
2023/03/19 03:41:21;;;;;;;2.47;2.27;;;;;;;10.38;93.03;100173.56;4994905;28;20272;-78
2023/03/19 03:43:48;;;;;;;3.47;2.33;;;;;;;10.42;93.65;100166.53;4995141;28;20207;-79
2023/03/19 03:46:14;;;;;;;2.80;2.40;;;;;;;10.42;93.67;100158.72;4995650;28;20249;-79
2023/03/19 03:48:40;;;;;;;3.47;2.70;;;;;;;10.46;92.05;100181.22;4995286;28;20238;-78
2023/03/19 03:51:07;;;;;;;2.70;2.50;;;;;;;10.53;92.89;100185.44;4995433;28;20278;-79
2023/03/19 03:53:35;;;;;;;2.50;2.30;;;;;;;10.57;93.63;100174.03;4994744;28;20248;-79
2023/03/19 03:56:02;;;;;;;2.63;2.43;;;;;;;10.58;93.83;100169.66;4995099;28;20214;-78
2023/03/19 03:58:28;;;;;;;2.60;2.40;;;;;;;10.54;93.62;100171.47;4995276;28;20657;-78
2023/03/19 04:00:55;;;;;;;3.37;2.97;;;;;;;10.48;93.25;100169.84;4995070;28;20230;-80
2023/03/19 04:03:23;;;;;;;2.87;2.50;;;;;;;10.48;93.15;100175.06;4994928;28;20714;-78
2023/03/19 04:05:49;;;;;;;2.40;2.20;;;;;;;10.45;93.44;100174.31;4994991;28;20226;-78
2023/03/19 04:08:15;;;;;;;2.40;2.20;;;;;;;10.45;93.17;100180.38;4995480;28;20257;-79
2023/03/19 04:10:43;;;;;;;2.20;1.97;;;;;;;10.45;93.17;100182.16;4995146;28;20261;-79
2023/03/19 04:13:10;;;;;;;2.30;2.10;;;;;;;10.39;93.12;100180.53;4995164;28;20235;-80
2023/03/19 04:15:37;;;;;;;2.53;2.17;;;;;;;10.39;92.94;100175.31;4995638;28;20242;-80
2023/03/19 04:18:03;;;;;;;2.70;2.50;;;;;;;10.37;93.09;100174.47;4995188;28;20211;-78
2023/03/19 04:20:31;;;;;;;3.53;3.00;;;;;;;10.29;93.45;100166.78;4995455;28;20388;-78
2023/03/19 04:22:57;;;;;;;4.13;3.73;;;;;;;10.26;93.90;100159.03;4995047;28;20676;-79
2023/03/19 04:25:24;;;;;;;4.00;3.70;;;;;;;10.18;94.31;100147.06;4995109;28;20243;-79
2023/03/19 04:27:52;;;;;;;4.47;4.07;;;;;;;10.14;95.19;100131.47;4995207;28;20238;-78
2023/03/19 04:30:18;;;;;;;3.70;3.40;;;;;;;10.05;95.93;100109.94;4995174;28;20244;-79
2023/03/19 04:32:45;;;;;;;5.00;3.80;;;;;;;9.96;96.66;100084.94;4994783;28;20700;-79
2023/03/19 04:35:11;;;;;;;3.10;2.60;;;;;;;9.95;96.90;100075.41;4994942;28;20246;-78
2023/03/19 04:37:37;;;;;;;3.40;2.27;;;;;;;9.98;97.10;100075.31;5011444;28;20576;-78
2023/03/19 04:40:05;;;;;;;4.73;2.50;;;;;;;10.05;97.17;100066.50;5014797;28;20333;-79
2023/03/19 04:42:32;;;;;;;2.60;2.27;;;;;;;10.13;96.08;100079.34;5014608;28;20697;-79
2023/03/19 04:44:59;;;;;;;2.90;2.60;;;;;;;10.13;94.90;100101.06;5014650;28;20265;-78
2023/03/19 04:47:26;;;;;;;3.23;2.93;;;;;;;10.13;94.89;100108.88;5014750;28;20220;-79
2023/03/19 04:49:52;;;;;;;4.03;3.70;;;;;;;10.13;94.85;100113.25;5014637;28;20274;-79
2023/03/19 04:52:18;;;;;;;10.73;3.77;;;;;;;9.99;95.63;100107.47;5014751;28;20244;-79
2023/03/19 04:54:44;;;;;;;3.10;2.90;;;;;;;10.00;96.45;100089.19;5014572;28;20199;-79
2023/03/19 04:57:11;;;;;;;3.73;3.43;;;;;;;10.05;96.50;100082.13;5004875;28;20214;-78
2023/03/19 04:59:38;;;;;;;3.80;3.37;;;;;;;10.10;96.27;100088.09;4994875;28;20720;-78
2023/03/19 05:02:06;;;;;;;4.97;3.50;;;;;;;10.13;95.54;100097.63;4994867;28;20602;-80
2023/03/19 05:04:32;;;;;;;4.60;4.20;;;;;;;10.16;94.96;100113.16;4994564;28;20223;-80
2023/03/19 05:06:58;;;;;;;4.07;3.73;;;;;;;10.15;94.47;100132.34;4995050;28;20709;-79
2023/03/19 05:09:25;;;;;;;3.93;3.73;;;;;;;10.17;94.18;100146.19;4995087;28;20282;-79
2023/03/19 05:11:51;;;;;;;5.87;5.37;;;;;;;10.07;94.68;100148.16;4995309;28;20239;-78
2023/03/19 05:14:17;;;;;;;4.37;4.07;;;;;;;9.88;95.88;100133.78;4994629;28;20204;-78
2023/03/19 05:16:44;;;;;;;5.17;3.57;;;;;;;9.94;95.46;100129.28;5000549;28;20705;-78
2023/03/19 05:19:11;;;;;;;5.73;4.10;;;;;;;9.98;94.80;100132.69;5014311;28;20271;-78
2023/03/19 05:21:39;;;;;;;4.30;4.00;;;;;;;10.10;94.36;100150.69;5013915;28;20214;-78
2023/03/19 05:24:06;;;;;;;7.27;6.77;;;;;;;10.09;94.40;100162.00;5013883;28;20680;-79
2023/03/19 05:26:32;;;;;;;6.70;6.20;;;;;;;10.01;95.31;100150.88;5014347;28;20264;-79
2023/03/19 05:28:59;;;;;;;5.33;4.93;;;;;;;10.05;95.46;100138.63;5013929;28;20216;-79
2023/03/19 05:31:25;;;;;;;4.90;4.53;;;;;;;10.10;94.54;100152.44;5014197;28;20209;-78
2023/03/19 05:33:52;;;;;;;4.60;4.30;;;;;;;10.10;93.91;100158.50;5015285;28;20635;-81
2023/03/19 05:36:19;;;;;;;5.60;5.10;;;;;;;10.12;93.75;100177.56;5015880;28;20248;-81
2023/03/19 05:38:46;;;;;;;5.07;4.67;;;;;;;10.12;93.47;100188.00;5014701;28;20204;-81
2023/03/19 05:41:12;;;;;;;6.47;5.97;;;;;;;10.12;93.23;100188.00;5018527;28;20212;-81
2023/03/19 05:43:38;;;;;;;4.83;4.47;;;;;;;10.13;93.01;100197.56;5020458;28;20264;-81
2023/03/19 05:46:05;;;;;;;4.90;4.50;;;;;;;10.15;92.62;100202.75;5020383;28;20894;-81
2023/03/19 05:48:32;;;;;;;4.67;4.27;;;;;;;10.14;92.11;100221.88;5020877;28;20323;-80
2023/03/19 05:50:59;;;;;;;6.93;6.23;;;;;;;9.63;94.73;100212.47;5020870;28;20230;-80
2023/03/19 05:53:27;;;;;;;5.60;5.10;;;;;;;9.50;95.96;100162.31;5020030;28;20206;-81
2023/03/19 05:55:53;;;;;;;7.67;7.00;;;;;;;9.10;99.22;100099.72;5020541;28;20209;-81
2023/03/19 05:58:19;;;;;;;7.00;6.40;;;;;;;9.05;100.00;100049.47;5009470;28;20206;-81
2023/03/19 06:00:47;;;;;;;6.67;6.17;;;;;;;9.07;100.00;100022.50;5000361;28;20593;-81
2023/03/19 06:03:13;;;;;;;7.00;6.50;;;;;;;9.18;100.00;100003.19;5000827;28;20221;-81
2023/03/19 06:05:40;;;;;;;6.87;6.47;;;;;;;9.34;100.00;99999.41;5000057;28;20233;-78
2023/03/19 06:08:06;;;;;;;6.30;5.80;;;;;;;9.45;100.00;100014.81;4999018;28;20209;-78
2023/03/19 06:10:36;;;;;;;6.83;5.60;;;;;;;9.52;99.60;100039.84;4998923;28;20263;-78
2023/03/19 06:13:03;;;;;;;3.10;2.80;;;;;;;9.58;98.51;100054.50;4998692;28;20203;-78
2023/03/19 06:15:30;;;;;;;2.83;2.30;;;;;;;9.64;97.87;100072.59;4998844;28;20217;-78
2023/03/19 06:17:56;;;;;;;2.57;2.00;;;;;;;9.73;97.06;100101.06;4998922;28;20203;-78
2023/03/19 06:20:23;;;;;;;2.33;2.13;;;;;;;9.79;96.43;100116.59;4998580;28;20233;-78
2023/03/19 06:22:49;;;;;;;2.83;1.90;;;;;;;9.80;96.37;100125.28;4998285;28;20233;-79
2023/03/19 06:25:16;;;;;;;2.07;1.70;;;;;;;9.88;96.33;100131.19;4998191;28;20787;-78
2023/03/19 06:27:43;;;;;;;2.03;1.70;;;;;;;9.90;96.13;100143.28;4998640;28;20647;-79
2023/03/19 06:30:11;;;;;;;4.50;2.23;;;;;;;9.85;95.88;100160.78;4998617;28;20614;-78
2023/03/19 06:32:37;;;;;;;4.93;4.47;;;;;;;9.36;98.80;100151.31;4998930;28;20713;-79
2023/03/19 06:35:05;;;;;;;6.27;5.77;;;;;;;9.37;100.00;100098.31;4999363;28;20239;-80
2023/03/19 06:37:32;;;;;;;6.57;5.97;;;;;;;9.56;100.00;100091.00;4999123;28;20693;-78
2023/03/19 06:39:58;;;;;;;6.30;5.80;;;;;;;9.67;100.00;100069.91;4999113;28;20260;-79
2023/03/19 06:42:24;;;;;;;6.47;5.73;;;;;;;9.79;100.00;100064.47;4998413;28;20213;-79
2023/03/19 06:44:52;;;;;;;6.20;5.70;;;;;;;9.85;100.00;100064.34;4998622;28;20230;-78
2023/03/19 06:47:19;;;;;;;5.50;5.00;;;;;;;9.93;100.00;100058.94;4998587;28;20215;-78
2023/03/19 06:49:45;;;;;;;5.70;5.20;;;;;;;10.04;100.00;100062.16;4998947;28;20233;-78
2023/03/19 06:52:11;;;;;;;6.97;4.57;;;;;;;10.12;100.00;100069.81;4998808;28;20210;-78
2023/03/19 06:54:38;;;;;;;4.47;4.17;;;;;;;10.13;100.00;100079.34;4998403;28;20238;-79
2023/03/19 06:57:04;;;;;;;4.17;3.70;;;;;;;10.30;95.05;100173.75;4998473;28;20212;-78
2023/03/19 06:59:30;;;;;;;3.40;3.00;;;;;;;10.44;95.68;100196.91;4998660;28;20256;-78
2023/03/19 07:01:58;;;;;;;5.53;3.00;;;;;;;10.54;97.35;100181.91;4998083;28;20234;-78
2023/03/19 07:04:24;;;;;;;2.67;2.47;;;;;;;10.58;97.83;100173.13;4998117;28;20257;-78
2023/03/19 07:06:51;;;;;;;2.63;1.97;;;;;;;10.62;96.99;100182.59;4998257;28;20262;-78
2023/03/19 07:09:17;;;;;;;2.33;2.13;;;;;;;10.63;96.17;100199.97;4997889;28;20278;-79
2023/03/19 07:11:44;;;;;;;4.43;2.77;;;;;;;10.72;94.31;100249.38;4998493;28;20238;-79
2023/03/19 07:14:10;;;;;;;1.83;1.73;;;;;;;10.80;94.88;100246.59;4997643;28;20597;-78
2023/03/19 07:16:37;;;;;;;2.83;2.20;;;;;;;10.75;95.61;100243.22;4999669;28;20732;-79
2023/03/19 07:19:04;;;;;;;4.03;2.33;;;;;;;10.79;92.60;100260.53;5000031;28;20198;-80
2023/03/19 07:21:31;;;;;;;2.53;2.03;;;;;;;10.89;93.01;100306.44;4999123;28;20215;-79
2023/03/19 07:23:57;;;;;;;3.40;2.57;;;;;;;10.96;92.53;100325.44;4998952;28;20217;-77
2023/03/19 07:26:24;;;;;;;4.60;2.00;;;;;;;11.04;93.13;100312.19;4998009;28;20269;-80
2023/03/19 07:28:50;;;;;;;2.37;2.17;;;;;;;11.03;93.99;100300.91;4998337;28;20206;-78
2023/03/19 07:31:17;;;;;;;2.53;2.20;;;;;;;11.02;94.33;100295.69;4999074;28;20210;-79
2023/03/19 07:33:43;;;;;;;2.63;2.13;;;;;;;11.02;96.19;100264.34;4998558;28;20233;-79
2023/03/19 07:36:11;;;;;;;2.33;2.13;;;;;;;11.04;97.19;100242.56;4998831;28;20243;-78
2023/03/19 07:38:37;;;;;;;3.43;2.67;;;;;;;11.07;98.34;100205.88;4998984;28;20270;-79
2023/03/19 07:41:04;;;;;;;3.23;2.33;;;;;;;11.07;100.00;100165.84;4998659;28;20233;-78
2023/03/19 07:43:31;;;;;;;3.10;2.20;;;;;;;11.10;100.00;100145.75;4998481;28;20242;-78
2023/03/19 07:45:57;;;;;;;3.40;2.10;;;;;;;11.12;100.00;100128.28;4998850;28;20258;-77
2023/03/19 07:48:23;;;;;;;5.17;2.47;;;;;;;11.13;100.00;100111.69;4999093;28;20210;-78
2023/03/19 07:50:50;;;;;;;3.60;2.30;;;;;;;11.11;100.00;100100.44;4998180;28;20257;-78
2023/03/19 07:53:18;;;;;;;3.37;2.17;;;;;;;10.98;100.00;100077.28;4997789;28;20578;-78
2023/03/19 07:55:45;;;;;;;2.63;2.40;;;;;;;10.95;100.00;100046.03;4998634;28;20210;-80
2023/03/19 07:58:11;;;;;;;2.33;1.93;;;;;;;10.92;100.00;100046.97;4998845;28;20241;-79
2023/03/19 08:00:37;;;;;;;4.23;1.80;;;;;;;11.01;100.00;100057.19;4998567;28;20253;-78
2023/03/19 08:03:04;;;;;;;2.50;1.90;;;;;;;11.06;100.00;100068.38;4998028;28;20216;-79
2023/03/19 08:05:30;;;;;;;2.00;1.43;;;;;;;11.03;100.00;100083.25;4998404;28;20265;-80
2023/03/19 08:07:57;;;;;;;4.93;1.60;;;;;;;11.17;100.00;100116.84;4998040;28;20215;-78
2023/03/19 08:10:24;;;;;;;2.10;1.90;;;;;;;11.25;100.00;100096.59;4997431;28;20266;-78
2023/03/19 08:12:51;;;;;;;1.90;1.70;;;;;;;11.35;100.00;100079.75;4998566;28;20202;-77
2023/03/19 08:15:17;;;;;;;2.60;1.87;;;;;;;11.43;100.00;100077.78;4997802;28;20239;-77
2023/03/19 08:17:44;;;;;;;1.37;1.27;;;;;;;11.52;100.00;100074.06;4998959;28;20664;-78
2023/03/19 08:20:15;;;;;;;2.13;1.73;;;;;;;11.58;100.00;100079.13;4998651;28;20230;-79
2023/03/19 08:22:42;;;;;;;2.60;2.40;;;;;;;11.68;100.00;100085.78;4291009;28;10000671;-78
2023/03/19 08:25:10;;;;;;;2.70;2.40;;;;;;;11.76;100.00;100090.78;4979115;28;20210;-79
2023/03/19 08:27:37;;;;;;;2.43;2.23;;;;;;;11.82;100.00;100082.75;4978299;28;20218;-79
2023/03/19 08:30:06;;;;;;;3.00;2.10;;;;;;;11.93;100.00;100087.69;4977549;28;20240;-77
2023/03/19 08:32:32;;;;;;;2.83;2.53;;;;;;;12.05;100.00;100094.31;4977002;28;20242;-79
2023/03/19 08:35:00;;;;;;;4.63;3.00;;;;;;;12.11;100.00;100097.63;5012871;28;20588;-79
2023/03/19 08:37:26;;;;;;;3.23;2.63;;;;;;;12.24;100.00;100110.31;5016161;28;20326;-78
2023/03/19 08:39:53;;;;;;;2.63;2.43;;;;;;;12.35;100.00;100130.91;5016261;28;20249;-79
2023/03/19 08:42:19;;;;;;;2.93;2.63;;;;;;;12.47;100.00;100141.88;5014646;28;20216;-79
2023/03/19 08:44:47;;;;;;;3.37;3.07;;;;;;;12.51;100.00;100160.94;5014229;28;20587;-77
2023/03/19 08:47:14;;;;;;;5.10;3.10;;;;;;;12.62;100.00;100169.31;5014792;28;20229;-79
2023/03/19 08:49:40;;;;;;;6.40;5.53;;;;;;;12.42;100.00;100153.38;5014416;28;20270;-78
2023/03/19 08:52:07;;;;;;;6.27;5.77;;;;;;;12.37;100.00;100173.59;5014662;28;20244;-77
2023/03/19 08:54:33;;;;;;;3.57;2.93;;;;;;;12.54;98.98;100189.63;5013595;28;20740;-79
2023/03/19 08:57:00;;;;;;;3.23;2.93;;;;;;;12.72;96.77;100243.19;5014910;28;20218;-79
2023/03/19 08:59:26;;;;;;;3.30;2.90;;;;;;;12.87;100.00;100208.66;5014798;28;20234;-77
2023/03/19 09:01:54;;;;;;;2.30;2.10;;;;;;;13.05;99.06;100215.06;5014199;28;20562;-79
2023/03/19 09:04:22;;;;;;;1.60;1.50;;;;;;;13.10;94.67;100268.22;5014278;28;20215;-78
2023/03/19 09:06:50;;;;;;;1.83;1.73;;;;;;;13.20;89.62;100357.88;5014653;28;20258;-78
2023/03/19 09:09:17;;;;;;;2.63;2.43;;;;;;;13.36;89.66;100423.84;5014424;28;20281;-77
2023/03/19 09:11:43;;;;;;;0.97;0.80;;;;;;;13.49;88.95;100424.31;5014270;28;20226;-78
2023/03/19 09:14:10;;;;;;;1.23;0.87;;;;;;;13.59;85.43;100499.16;5012717;28;20202;-78
2023/03/19 09:16:37;;;;;;;0.73;0.73;;;;;;;13.65;83.74;100575.03;4999164;28;20203;-77
2023/03/19 09:19:05;;;;;;;1.63;0.80;;;;;;;13.66;82.29;100604.78;5014285;28;20247;-80
2023/03/19 09:21:31;;;;;;;1.87;0.90;;;;;;;13.71;86.55;100555.66;4996553;28;20453;-77
2023/03/19 09:23:57;;;;;;;0.73;0.60;;;;;;;13.74;85.42;100573.06;4975103;28;20299;-79
2023/03/19 09:26:24;;;;;;;1.30;1.10;;;;;;;13.75;85.14;100569.53;4975678;28;20251;-78
2023/03/19 09:28:50;;;;;;;0.60;0.60;;;;;;;13.76;76.76;100707.69;4975370;28;20253;-79
2023/03/19 09:31:16;;;;;;;1.93;1.83;;;;;;;13.89;75.80;100769.41;4976019;28;20219;-79
2023/03/19 09:33:43;;;;;;;1.40;1.30;;;;;;;14.02;74.92;100838.19;4985649;28;20208;-79
2023/03/19 09:36:10;;;;;;;1.47;0.60;;;;;;;14.09;73.83;100868.59;4996094;28;20211;-78
2023/03/19 09:38:38;;;;;;;1.70;1.60;;;;;;;14.16;76.69;100856.19;4995869;28;20243;-79
2023/03/19 09:41:12;;;;;;;2.23;1.47;;;;;;;14.18;75.73;100857.88;5008864;28;20230;-79
2023/03/19 09:43:55;;;;;;;2.17;1.73;;;;;;;14.21;76.73;100844.66;5014341;28;20218;-79
2023/03/19 09:46:29;;;;;;;1.40;1.30;;;;;;;14.36;78.40;100813.63;5015327;28;20258;-76
2023/03/19 09:49:00;;;;;;;1.20;1.10;;;;;;;14.40;77.26;100802.97;5013789;28;20703;-79
2023/03/19 09:51:35;;;;;;;1.57;1.30;;;;;;;14.32;74.73;100848.75;5008427;28;20294;-80
2023/03/19 09:54:04;;;;;;;1.70;0.80;;;;;;;14.40;75.00;100867.78;4994947;28;20215;-79
2023/03/19 09:56:32;;;;;;;0.97;0.90;;;;;;;14.52;75.65;100846.41;4995249;28;20213;-78
2023/03/19 09:58:59;;;;;;;0.97;0.80;;;;;;;14.51;79.07;100821.06;4995556;28;20244;-79
2023/03/19 10:01:28;;;;;;;1.00;1.00;;;;;;;14.46;72.25;100836.94;4994558;28;20711;-79
2023/03/19 10:04:16;;;;;;;0.90;0.90;;;;;;;14.64;72.30;100903.03;4992802;28;20203;-78
2023/03/19 10:06:43;;;;;;;0.90;0.77;;;;;;;14.80;71.86;100938.47;4993043;28;20236;-79
2023/03/19 10:09:30;;;;;;;1.27;0.87;;;;;;;14.90;71.49;100954.84;4993686;28;20233;-78
2023/03/19 10:12:13;;;;;;;0.90;0.90;;;;;;;14.91;69.51;100963.63;4992800;28;20744;-80
2023/03/19 10:15:09;;;;;;;1.27;0.93;;;;;;;14.92;69.20;100989.00;4992345;28;20246;-79
2023/03/19 10:17:41;;;;;;;2.07;1.27;;;;;;;15.03;70.07;101002.69;4992983;28;20237;-79
2023/03/19 10:20:10;;;;;;;1.43;1.10;;;;;;;14.99;68.61;101012.44;4992776;28;20234;-79
2023/03/19 10:22:45;;;;;;;1.30;1.20;;;;;;;15.07;71.56;100992.03;4999795;28;20583;-77
2023/03/19 10:25:18;;;;;;;1.60;1.40;;;;;;;15.13;71.34;100971.75;5012307;28;20595;-79
2023/03/19 10:27:47;;;;;;;2.20;1.30;;;;;;;15.30;72.52;100922.09;5014444;28;20239;-79
2023/03/19 10:30:15;;;;;;;2.93;1.57;;;;;;;15.33;73.16;100908.88;5015118;28;20269;-80
2023/03/19 10:32:43;;;;;;;1.77;1.60;;;;;;;15.44;73.39;100863.81;5015566;28;20237;-80
2023/03/19 10:35:18;;;;;;;1.60;1.50;;;;;;;15.21;68.86;100928.53;5016029;28;20299;-79
2023/03/19 10:37:47;;;;;;;3.53;1.90;;;;;;;15.38;71.74;100954.31;5015920;28;20249;-80
2023/03/19 10:40:21;;;;;;;2.10;1.90;;;;;;;15.58;70.01;100942.28;5015986;28;20260;-79
2023/03/19 10:43:01;;;;;;;1.87;1.30;;;;;;;15.73;69.85;100944.47;5015833;28;20236;-79
2023/03/19 10:45:30;;;;;;;2.17;1.53;;;;;;;15.85;70.20;100928.28;5015484;28;20637;-80
2023/03/19 10:47:57;;;;;;;2.13;2.03;;;;;;;15.81;67.78;100970.56;5015990;28;20243;-80
2023/03/19 10:50:29;;;;;;;2.50;1.53;;;;;;;15.70;67.33;100970.88;5015912;28;20228;-80
2023/03/19 10:53:05;;;;;;;2.17;1.80;;;;;;;15.82;66.74;101004.75;5015966;28;20251;-80
2023/03/19 10:55:32;;;;;;;1.00;1.00;;;;;;;15.80;66.67;101014.47;5016095;28;20204;-80
2023/03/19 10:58:03;;;;;;;1.77;1.00;;;;;;;15.94;66.32;101040.34;5007775;28;20830;-79
2023/03/19 11:00:32;;;;;;;1.80;1.70;;;;;;;15.84;65.83;101067.88;4996097;28;20265;-80
2023/03/19 11:03:03;;;;;;;1.13;1.03;;;;;;;15.88;67.05;101072.13;4995423;28;20204;-80
2023/03/19 11:05:31;;;;;;;1.27;1.17;;;;;;;15.95;64.15;101043.84;4997740;28;20209;-80
2023/03/19 11:08:01;;;;;;;1.37;1.07;;;;;;;15.75;62.87;101121.66;5015704;28;20781;-80
2023/03/19 11:10:29;;;;;;;3.40;1.57;;;;;;;15.69;64.07;101132.31;5015480;28;20268;-80
2023/03/19 11:12:59;;;;;;;2.03;1.67;;;;;;;15.89;66.08;101103.66;5014740;28;20446;-80
2023/03/19 11:15:28;;;;;;;2.10;1.80;;;;;;;15.84;64.41;101099.47;5015828;28;20274;-80
2023/03/19 11:17:59;;;;;;;2.63;2.27;;;;;;;16.01;64.99;101085.78;5015500;28;20634;-80
2023/03/19 11:20:32;;;;;;;1.83;1.70;;;;;;;15.96;64.61;101082.44;5015645;28;20334;-80
2023/03/19 11:23:03;;;;;;;2.00;1.90;;;;;;;16.23;66.69;101063.13;4976756;28;20297;-79
2023/03/19 11:25:34;;;;;;;2.27;1.87;;;;;;;16.41;66.02;101032.69;4977042;28;20206;-79
2023/03/19 11:28:03;;;;;;;2.13;1.50;;;;;;;16.51;64.00;101075.41;4991128;28;20225;-79